Time;durP1;ratioP1;P1;durP2;ratioP2;P2;SDS_P1;SDS_P2;PMS_P1;PMS_P2;Temp;Humidity;BMP_temperature;BMP_pressure;BME280_temperature;BME280_humidity;BME280_pressure;Samples;Min_cycle;Max_cycle;Signal;HPM_P1;HPM_P2
2022/12/17 13:06:11;;;;;;;11.20;9.83;;;;;;;;;;5053169;28;20212;-80
2022/12/17 13:08:38;;;;;;;9.07;5.20;;;;;;;;;;5068055;28;20262;-80
2022/12/17 13:11:30;;;;;;;13.90;8.87;;;;;;;;;;5073060;28;20199;-81
2022/12/17 13:14:01;;;;;;;12.77;9.27;;;;;;;;;;5059624;28;20259;-80
2022/12/17 13:16:39;;;;;;;12.87;7.80;;;;;;;;;;5072757;28;20759;-80
2022/12/17 13:19:21;;;;;;;9.80;6.90;;;;;;;;;;5071421;28;20610;-80
2022/12/17 13:21:48;;;;;;;5.57;5.03;;;;;;;;;;5071141;28;20221;-80
2022/12/17 13:24:24;;;;;;;11.77;10.57;;;;;;;;;;5065890;28;20235;-80
2022/12/17 13:26:51;;;;;;;12.73;8.87;;;;;;;;;;5066083;28;20703;-80
2022/12/17 13:29:24;;;;;;;9.50;7.03;;;;;;;;;;5061863;28;20201;-80
2022/12/17 13:32:02;;;;;;;19.33;13.67;;;;;;;;;;5067823;28;20263;-82
2022/12/17 13:34:38;;;;;;;11.80;6.70;;;;;;;;;;5060874;28;20695;-81
2022/12/17 13:37:08;;;;;;;6.57;4.87;;;;;;;;;;5048252;28;20274;-81
2022/12/17 13:39:40;;;;;;;13.00;5.90;;;;;;;;;;5061170;28;20262;-82
2022/12/17 13:42:17;;;;;;;11.50;6.83;;;;;;;;;;5058637;28;20243;-81
2022/12/17 13:44:48;;;;;;;5.77;3.60;;;;;;;;;;5070460;28;20610;-81
2022/12/17 13:47:22;;;;;;;7.23;4.10;;;;;;;;;;5070368;28;20197;-80
2022/12/17 13:49:53;;;;;;;8.20;5.80;;;;;;;;;;5068820;28;20292;-81
2022/12/17 13:52:22;;;;;;;17.20;8.17;;;;;;;;;;5072145;28;20677;-85
2022/12/17 13:54:49;;;;;;;13.53;9.10;;;;;;;;;;5069423;28;20599;-82
2022/12/17 13:57:19;;;;;;;7.17;5.60;;;;;;;;;;5072252;28;20204;-81
2022/12/17 13:59:49;;;;;;;13.67;6.67;;;;;;;;;;5067358;28;20215;-82
2022/12/17 14:02:25;;;;;;;6.30;4.30;;;;;;;;;;5072025;28;20243;-81
2022/12/17 14:04:53;;;;;;;7.37;5.40;;;;;;;;;;5058241;28;20675;-81
2022/12/17 14:07:20;;;;;;;9.00;5.03;;;;;;;;;;5064761;28;20214;-81
2022/12/17 14:09:48;;;;;;;4.57;4.20;;;;;;;;;;5061404;28;20698;-81
2022/12/17 14:12:21;;;;;;;6.80;5.03;;;;;;;;;;5062634;28;20246;-81
2022/12/17 14:14:49;;;;;;;9.70;5.13;;;;;;;;;;5062951;28;20205;-81
2022/12/17 14:17:21;;;;;;;6.67;4.30;;;;;;;;;;5070673;28;20216;-81
2022/12/17 14:19:54;;;;;;;4.03;3.70;;;;;;;;;;5059218;28;20270;-82
2022/12/17 14:22:27;;;;;;;5.47;3.40;;;;;;;;;;5056255;28;20239;-81
2022/12/17 14:24:54;;;;;;;5.53;3.00;;;;;;;;;;5071433;28;20207;-81
2022/12/17 14:27:24;;;;;;;12.23;6.97;;;;;;;;;;5058454;28;20691;-81
2022/12/17 14:29:51;;;;;;;12.93;7.27;;;;;;;;;;5060315;28;20219;-81
2022/12/17 14:32:26;;;;;;;18.20;11.07;;;;;;;;;;5062852;28;20217;-82
2022/12/17 14:34:54;;;;;;;35.83;20.63;;;;;;;;;;5071392;28;20217;-81
2022/12/17 14:37:24;;;;;;;33.27;20.53;;;;;;;;;;5069596;28;20210;-81
2022/12/17 14:39:53;;;;;;;49.00;31.70;;;;;;;;;;5068174;28;20960;-82
2022/12/17 14:42:29;;;;;;;48.27;34.23;;;;;;;;;;5063073;28;20236;-81
2022/12/17 14:44:58;;;;;;;88.43;49.63;;;;;;;;;;5064091;28;20259;-81
2022/12/17 14:47:26;;;;;;;66.90;41.37;;;;;;;;;;5064535;28;20199;-85
2022/12/17 14:50:01;;;;;;;12.80;9.57;;;;;;;;;;5065371;28;20619;-82
2022/12/17 14:52:42;;;;;;;28.00;16.40;;;;;;;;;;5062023;28;20306;-86
2022/12/17 14:55:23;;;;;;;33.27;15.30;;;;;;;;;;5055536;28;20288;-82
2022/12/17 14:57:51;;;;;;;13.10;7.93;;;;;;;;;;5056873;28;20263;-81
2022/12/17 15:00:18;;;;;;;6.33;5.17;;;;;;;;;;5064257;28;20211;-81
2022/12/17 15:02:49;;;;;;;10.13;5.20;;;;;;;;;;5055919;28;20225;-82
2022/12/17 15:05:17;;;;;;;9.97;5.07;;;;;;;;;;5057530;28;20197;-81
2022/12/17 15:07:44;;;;;;;6.90;4.47;;;;;;;;;;5065309;28;20204;-84
2022/12/17 15:10:13;;;;;;;10.80;5.53;;;;;;;;;;5059177;28;20565;-82
2022/12/17 15:12:40;;;;;;;11.73;7.67;;;;;;;;;;5060073;28;20205;-82
2022/12/17 15:15:11;;;;;;;8.97;6.50;;;;;;;;;;5057362;28;20210;-82
2022/12/17 15:17:38;;;;;;;12.37;6.40;;;;;;;;;;5051917;28;20696;-83
2022/12/17 15:20:08;;;;;;;9.37;6.40;;;;;;;;;;5054613;28;20197;-83
2022/12/17 15:22:37;;;;;;;29.40;26.20;;;;;;;;;;5070600;28;20224;-83
2022/12/17 15:25:07;;;;;;;36.43;26.73;;;;;;;;;;5054977;28;20206;-84
2022/12/17 15:27:34;;;;;;;15.50;12.27;;;;;;;;;;5063004;28;20213;-84
2022/12/17 15:30:00;;;;;;;10.03;7.57;;;;;;;;;;5052107;28;20237;-83
2022/12/17 15:32:28;;;;;;;8.63;7.73;;;;;;;;;;5061926;28;20217;-82
2022/12/17 15:34:54;;;;;;;9.37;7.13;;;;;;;;;;5069979;28;20236;-86
2022/12/17 15:37:21;;;;;;;15.93;11.33;;;;;;;;;;5070264;28;20212;-86
2022/12/17 15:39:50;;;;;;;16.20;10.40;;;;;;;;;;5069427;28;20213;-85
2022/12/17 15:45:00;;;;;;;22.90;15.60;;;;;;;;;;5070746;28;20204;-86
2022/12/17 15:47:27;;;;;;;20.90;15.67;;;;;;;;;;5071364;28;20751;-85
2022/12/17 15:49:54;;;;;;;19.13;15.83;;;;;;;;;;5070410;28;20690;-86
2022/12/17 15:52:22;;;;;;;23.67;18.17;;;;;;;;;;5066238;28;20231;-86
2022/12/17 15:54:50;;;;;;;22.27;16.40;;;;;;;;;;5058128;28;20205;-86
2022/12/17 15:57:17;;;;;;;22.67;14.30;;;;;;;;;;5070859;28;20672;-87
2022/12/17 15:59:44;;;;;;;50.10;25.57;;;;;;;;;;5069815;28;20209;-87
2022/12/17 16:02:11;;;;;;;26.43;18.00;;;;;;;;;;5059998;28;20316;-83
2022/12/17 16:04:38;;;;;;;18.60;15.60;;;;;;;;;;5061844;28;20672;-82
2022/12/17 16:07:05;;;;;;;16.27;14.57;;;;;;;;;;5063513;28;20263;-81
2022/12/17 16:09:32;;;;;;;18.77;13.93;;;;;;;;;;5067393;28;20193;-83
2022/12/17 16:12:00;;;;;;;30.27;21.13;;;;;;;;;;5069168;28;20204;-85
2022/12/17 16:14:27;;;;;;;32.87;22.67;;;;;;;;;;5069958;28;20193;-82
2022/12/17 16:16:54;;;;;;;100.33;62.37;;;;;;;;;;5063553;28;20205;-82
2022/12/17 16:19:23;;;;;;;48.57;32.17;;;;;;;;;;5066069;28;20225;-82
2022/12/17 16:21:50;;;;;;;24.83;18.20;;;;;;;;;;5070284;28;20223;-82
2022/12/17 16:24:18;;;;;;;24.23;19.47;;;;;;;;;;5070188;28;20197;-83
2022/12/17 16:26:45;;;;;;;21.70;15.87;;;;;;;;;;5070069;28;20281;-82
2022/12/17 16:29:14;;;;;;;23.47;17.90;;;;;;;;;;5062838;28;20208;-82
2022/12/17 16:31:41;;;;;;;21.60;17.40;;;;;;;;;;5067814;28;20202;-82
2022/12/17 16:34:09;;;;;;;23.07;13.23;;;;;;;;;;5068203;28;20635;-83
2022/12/17 16:36:35;;;;;;;17.23;12.97;;;;;;;;;;5063447;28;20201;-81
2022/12/17 16:39:03;;;;;;;15.57;12.23;;;;;;;;;;5065554;28;20719;-83
2022/12/17 16:41:30;;;;;;;15.03;12.77;;;;;;;;;;5066818;28;20219;-84
2022/12/17 16:43:56;;;;;;;18.87;16.93;;;;;;;;;;5066114;28;20213;-83
2022/12/17 16:46:27;;;;;;;23.83;19.23;;;;;;;;;;5064064;28;20278;-82
2022/12/17 16:48:54;;;;;;;20.50;18.37;;;;;;;;;;5069484;28;20212;-83
2022/12/17 16:51:23;;;;;;;18.47;14.23;;;;;;;;;;5064392;28;20246;-82
2022/12/17 16:53:50;;;;;;;14.10;12.67;;;;;;;;;;5068443;28;20634;-83
2022/12/17 16:56:18;;;;;;;15.00;13.40;;;;;;;;;;5057256;28;20213;-83
2022/12/17 16:58:45;;;;;;;20.73;15.53;;;;;;;;;;5064160;28;20208;-83
2022/12/17 17:01:18;;;;;;;43.97;34.97;;;;;;;;;;5069555;28;20227;-82
2022/12/17 17:03:46;;;;;;;17.33;15.57;;;;;;;;;;5067712;28;20221;-82
2022/12/17 17:06:13;;;;;;;17.37;15.53;;;;;;;;;;5070258;28;20235;-81
2022/12/17 17:08:40;;;;;;;31.67;25.63;;;;;;;;;;5072625;28;20639;-82
2022/12/17 17:11:08;;;;;;;31.47;24.67;;;;;;;;;;5070758;28;20203;-82
2022/12/17 17:13:36;;;;;;;19.77;17.63;;;;;;;;;;5073368;28;20233;-82
2022/12/17 17:16:03;;;;;;;32.80;27.90;;;;;;;;;;5071533;28;20190;-82
2022/12/17 17:18:31;;;;;;;33.87;28.93;;;;;;;;;;5070872;28;20235;-83
2022/12/17 17:21:15;;;;;;;48.27;33.77;;;;;;;;;;5073081;28;20201;-81
2022/12/17 17:23:43;;;;;;;33.73;28.00;;;;;;;;;;5059595;28;20237;-81
2022/12/17 17:26:10;;;;;;;17.13;13.93;;;;;;;;;;5072782;28;20209;-82
2022/12/17 17:28:38;;;;;;;18.00;12.27;;;;;;;;;;5069894;28;20205;-81
2022/12/17 17:31:07;;;;;;;13.57;12.17;;;;;;;;;;5052779;28;20299;-82
2022/12/17 17:33:35;;;;;;;20.80;15.10;;;;;;;;;;5070140;28;20200;-83
2022/12/17 17:36:04;;;;;;;17.37;15.10;;;;;;;;;;5073121;28;20216;-82
2022/12/17 17:38:37;;;;;;;12.90;10.07;;;;;;;;;;5071045;28;20203;-84
2022/12/17 17:41:04;;;;;;;12.10;9.07;;;;;;;;;;5060551;28;20684;-83
2022/12/17 17:43:31;;;;;;;13.53;10.00;;;;;;;;;;5071528;28;20232;-83
2022/12/17 17:46:04;;;;;;;7.90;7.20;;;;;;;;;;5072471;28;20216;-83
2022/12/17 17:48:32;;;;;;;9.50;8.33;;;;;;;;;;5059978;28;20212;-86
2022/12/17 17:50:59;;;;;;;11.93;10.57;;;;;;;;;;5071651;28;20665;-82
2022/12/17 17:53:26;;;;;;;12.23;11.03;;;;;;;;;;5060384;28;20201;-82
2022/12/17 17:55:55;;;;;;;13.70;10.87;;;;;;;;;;5071205;28;20216;-82
2022/12/17 17:58:22;;;;;;;11.47;9.73;;;;;;;;;;5072227;28;20239;-82
2022/12/17 18:00:49;;;;;;;16.40;14.70;;;;;;;;;;5054205;28;20783;-81
2022/12/17 18:03:16;;;;;;;16.67;14.87;;;;;;;;;;5071065;28;20221;-81
2022/12/17 18:05:43;;;;;;;12.77;11.23;;;;;;;;;;5053883;28;20589;-81
2022/12/17 18:08:10;;;;;;;12.30;9.77;;;;;;;;;;5063242;28;20208;-81
2022/12/17 18:10:40;;;;;;;12.07;10.83;;;;;;;;;;5067981;28;20286;-82
2022/12/17 18:15:53;;;;;;;18.43;16.43;;;;;;;;;;5071567;28;20216;-83
2022/12/17 18:18:20;;;;;;;12.40;11.10;;;;;;;;;;5071915;28;20229;-82
2022/12/17 18:20:46;;;;;;;18.90;17.00;;;;;;;;;;5071700;28;20193;-82
2022/12/17 18:23:13;;;;;;;14.67;13.00;;;;;;;;;;5071200;28;20236;-81
2022/12/17 18:25:40;;;;;;;11.97;10.77;;;;;;;;;;5070686;28;20226;-83
2022/12/17 18:28:08;;;;;;;11.77;10.57;;;;;;;;;;5059351;28;20330;-82
2022/12/17 18:30:38;;;;;;;10.73;9.23;;;;;;;;;;5064065;28;20210;-82
2022/12/17 18:33:05;;;;;;;14.87;12.10;;;;;;;;;;5064231;28;20679;-82
2022/12/17 18:35:33;;;;;;;16.50;14.33;;;;;;;;;;5057658;28;20203;-82
2022/12/17 18:38:01;;;;;;;16.93;13.73;;;;;;;;;;5071499;28;20266;-83
2022/12/17 18:40:28;;;;;;;14.53;12.27;;;;;;;;;;5058716;28;20271;-82
2022/12/17 18:45:40;;;;;;;14.67;13.13;;;;;;;;;;5071091;28;20288;-82
2022/12/17 18:48:07;;;;;;;13.43;12.07;;;;;;;;;;5071322;28;20203;-82
2022/12/17 18:50:34;;;;;;;42.67;37.97;;;;;;;;;;5071259;28;20254;-83
2022/12/17 18:53:04;;;;;;;17.70;15.07;;;;;;;;;;5067156;28;20213;-82
2022/12/17 18:55:33;;;;;;;10.87;9.77;;;;;;;;;;5062746;28;20258;-82
2022/12/17 18:58:00;;;;;;;11.73;10.57;;;;;;;;;;5058109;28;20640;-81
2022/12/17 19:00:27;;;;;;;13.20;11.90;;;;;;;;;;5071020;28;20201;-81
2022/12/17 19:02:55;;;;;;;7.97;7.17;;;;;;;;;;5070981;28;20225;-81
2022/12/17 19:05:24;;;;;;;7.67;6.97;;;;;;;;;;5070612;28;20205;-82
2022/12/17 19:07:54;;;;;;;7.77;7.07;;;;;;;;;;5070895;28;20666;-81
2022/12/17 19:10:21;;;;;;;7.17;6.17;;;;;;;;;;5057381;28;20217;-82
2022/12/17 19:12:48;;;;;;;6.80;6.20;;;;;;;;;;5057908;28;20217;-83
2022/12/17 19:15:14;;;;;;;6.77;4.57;;;;;;;;;;5070654;28;20204;-82
2022/12/17 19:17:41;;;;;;;6.20;4.33;;;;;;;;;;5070645;28;20209;-81
2022/12/17 19:20:11;;;;;;;5.47;5.00;;;;;;;;;;5070196;28;20212;-82
2022/12/17 19:22:38;;;;;;;6.53;5.63;;;;;;;;;;5058205;28;20220;-82
2022/12/17 19:25:08;;;;;;;6.43;5.30;;;;;;;;;;5070909;28;20209;-82
2022/12/17 19:27:35;;;;;;;5.43;4.93;;;;;;;;;;5071321;28;20306;-82
2022/12/17 19:30:01;;;;;;;7.47;5.03;;;;;;;;;;5070783;28;20205;-82
2022/12/17 19:32:30;;;;;;;5.83;5.33;;;;;;;;;;5070380;28;20209;-82
2022/12/17 19:34:57;;;;;;;6.13;5.53;;;;;;;;;;5057166;28;20206;-82
2022/12/17 19:37:25;;;;;;;6.70;6.00;;;;;;;;;;5070711;28;20216;-82
2022/12/17 19:39:51;;;;;;;7.83;7.00;;;;;;;;;;5070743;28;20223;-82
2022/12/17 19:42:24;;;;;;;53.03;34.80;;;;;;;;;;5072817;28;20209;-81
2022/12/17 19:44:52;;;;;;;49.60;34.13;;;;;;;;;;5074893;28;20202;-82
2022/12/17 19:47:19;;;;;;;10.40;8.70;;;;;;;;;;5074554;28;20258;-81
2022/12/17 19:49:46;;;;;;;9.07;6.73;;;;;;;;;;5071050;28;20220;-82
2022/12/17 19:52:12;;;;;;;6.70;5.87;;;;;;;;;;5065267;28;20209;-82
2022/12/17 19:54:41;;;;;;;7.70;5.60;;;;;;;;;;5070981;28;20202;-82
2022/12/17 19:57:07;;;;;;;5.97;5.40;;;;;;;;;;5065584;28;20233;-82
2022/12/17 19:59:34;;;;;;;6.87;6.10;;;;;;;;;;5074092;28;20208;-82
2022/12/17 20:02:02;;;;;;;7.57;6.37;;;;;;;;;;5074169;28;20212;-81
2022/12/17 20:04:29;;;;;;;7.70;6.00;;;;;;;;;;5073731;28;20290;-82
2022/12/17 20:06:57;;;;;;;6.60;5.93;;;;;;;;;;5073562;28;20202;-81
2022/12/17 20:09:24;;;;;;;6.33;5.00;;;;;;;;;;5074094;28;20201;-82
2022/12/17 20:11:53;;;;;;;8.33;5.03;;;;;;;;;;5073721;28;20212;-83
2022/12/17 20:14:22;;;;;;;6.87;5.87;;;;;;;;;;5073624;28;20212;-83
2022/12/17 20:16:52;;;;;;;6.37;5.70;;;;;;;;;;5060738;28;20256;-84
2022/12/17 20:19:20;;;;;;;5.17;4.70;;;;;;;;;;5054061;28;20230;-84
2022/12/17 20:21:47;;;;;;;6.63;5.70;;;;;;;;;;5067412;28;20213;-84
2022/12/17 20:24:15;;;;;;;30.87;23.23;;;;;;;;;;5054408;28;20230;-84
2022/12/17 20:26:45;;;;;;;25.47;19.10;;;;;;;;;;5067532;28;20198;-84
2022/12/17 20:29:16;;;;;;;16.50;13.93;;;;;;;;;;5074358;28;20193;-84
2022/12/17 20:31:44;;;;;;;16.33;14.33;;;;;;;;;;5073958;28;20215;-84
2022/12/17 20:34:14;;;;;;;16.70;14.77;;;;;;;;;;5074174;28;20209;-88
2022/12/17 20:36:40;;;;;;;15.73;14.03;;;;;;;;;;5071497;28;20200;-83
2022/12/17 20:39:08;;;;;;;9.93;8.93;;;;;;;;;;5071349;28;20201;-82
2022/12/17 20:41:35;;;;;;;10.03;7.33;;;;;;;;;;5073081;28;20579;-82
2022/12/17 20:44:04;;;;;;;5.57;5.03;;;;;;;;;;5073268;28;20233;-83
2022/12/17 20:46:33;;;;;;;5.60;5.10;;;;;;;;;;5072900;28;20630;-82
2022/12/17 20:49:01;;;;;;;6.43;4.83;;;;;;;;;;5073094;28;20488;-82
2022/12/17 20:51:29;;;;;;;6.60;4.60;;;;;;;;;;5071634;28;20684;-83
2022/12/17 20:53:57;;;;;;;5.07;4.60;;;;;;;;;;5072401;28;20699;-82
2022/12/17 20:56:25;;;;;;;4.67;4.23;;;;;;;;;;5072996;28;20212;-83
2022/12/17 20:58:53;;;;;;;4.87;4.37;;;;;;;;;;5072829;28;20562;-83
2022/12/17 21:01:22;;;;;;;8.00;5.10;;;;;;;;;;5059633;28;20696;-83
2022/12/17 21:03:52;;;;;;;5.53;5.03;;;;;;;;;;5071984;28;20230;-84
2022/12/17 21:06:21;;;;;;;4.90;4.43;;;;;;;;;;5072458;28;20205;-84
2022/12/17 21:08:50;;;;;;;4.73;4.33;;;;;;;;;;5073103;28;20245;-84
2022/12/17 21:11:18;;;;;;;6.57;5.17;;;;;;;;;;5071134;28;20204;-86
2022/12/17 21:13:45;;;;;;;5.53;4.70;;;;;;;;;;5072516;28;20205;-82
2022/12/17 21:16:15;;;;;;;5.20;4.70;;;;;;;;;;5072870;28;20209;-82
2022/12/17 21:18:42;;;;;;;8.47;5.30;;;;;;;;;;5058853;28;20230;-83
2022/12/17 21:21:15;;;;;;;5.17;4.67;;;;;;;;;;5071866;28;20193;-83
2022/12/17 21:23:43;;;;;;;5.00;3.90;;;;;;;;;;5072974;28;20225;-83
2022/12/17 21:26:13;;;;;;;4.60;4.20;;;;;;;;;;5072299;28;20204;-83
2022/12/17 21:28:41;;;;;;;8.57;7.00;;;;;;;;;;5072861;28;20205;-83
2022/12/17 21:31:15;;;;;;;6.63;6.03;;;;;;;;;;5072446;28;20699;-83
2022/12/17 21:33:42;;;;;;;6.03;5.10;;;;;;;;;;5070708;28;20201;-85
2022/12/17 21:36:10;;;;;;;7.23;6.53;;;;;;;;;;5071161;28;20228;-83
2022/12/17 21:38:37;;;;;;;6.87;6.27;;;;;;;;;;5072253;28;20566;-83
2022/12/17 21:41:06;;;;;;;19.00;17.00;;;;;;;;;;5061222;28;20209;-83
2022/12/17 21:43:33;;;;;;;8.00;7.20;;;;;;;;;;5072189;28;20225;-83
2022/12/17 21:46:00;;;;;;;6.60;6.00;;;;;;;;;;5054246;28;20675;-82
2022/12/17 21:48:27;;;;;;;3.47;3.00;;;;;;;;;;5071150;28;20301;-82
2022/12/17 21:50:54;;;;;;;3.40;3.10;;;;;;;;;;5054376;28;20205;-82
2022/12/17 21:53:24;;;;;;;5.87;4.93;;;;;;;;;;5071250;28;20202;-82
2022/12/17 21:56:01;;;;;;;8.07;5.80;;;;;;;;;;5071454;28;20201;-83
2022/12/17 21:58:28;;;;;;;4.37;3.97;;;;;;;;;;5070253;28;20568;-82
2022/12/17 22:00:55;;;;;;;4.53;4.03;;;;;;;;;;5071354;28;20205;-83
2022/12/17 22:03:23;;;;;;;6.00;4.67;;;;;;;;;;5050413;28;20663;-83
2022/12/17 22:05:50;;;;;;;6.20;5.23;;;;;;;;;;5064253;28;20212;-83
2022/12/17 22:08:17;;;;;;;7.13;6.37;;;;;;;;;;5061072;28;20209;-83
2022/12/17 22:10:46;;;;;;;8.40;5.27;;;;;;;;;;5070095;28;20213;-84
2022/12/17 22:15:57;;;;;;;5.90;4.37;;;;;;;;;;5070518;28;20219;-83
2022/12/17 22:18:24;;;;;;;3.70;3.30;;;;;;;;;;5059633;28;20234;-83
2022/12/17 22:20:58;;;;;;;3.97;3.57;;;;;;;;;;5070302;28;20617;-83
2022/12/17 22:23:24;;;;;;;6.23;4.40;;;;;;;;;;5070938;28;20224;-83
2022/12/17 22:25:53;;;;;;;4.63;3.93;;;;;;;;;;5070995;28;20193;-83
2022/12/17 22:28:20;;;;;;;3.90;3.20;;;;;;;;;;5070181;28;20201;-83
2022/12/17 22:33:31;;;;;;;4.33;2.97;;;;;;;;;;5068529;28;20294;-83
2022/12/17 22:36:00;;;;;;;4.10;3.57;;;;;;;;;;5070898;28;20201;-83
2022/12/17 22:38:27;;;;;;;4.10;3.53;;;;;;;;;;5066893;28;20281;-83
2022/12/17 22:41:04;;;;;;;5.37;3.50;;;;;;;;;;5052537;28;20209;-83
2022/12/17 22:43:29;;;;;;;5.63;4.70;;;;;;;;;;5068105;28;20228;-83
2022/12/17 22:45:59;;;;;;;4.27;3.87;;;;;;;;;;5069666;28;20209;-83
2022/12/17 22:48:26;;;;;;;3.87;3.47;;;;;;;;;;5070884;28;20205;-83
2022/12/17 22:50:54;;;;;;;4.93;3.10;;;;;;;;;;5036506;28;20205;-83
2022/12/17 22:53:22;;;;;;;4.67;3.17;;;;;;;;;;5066768;28;20684;-83
2022/12/17 22:55:49;;;;;;;25.50;19.13;;;;;;;;;;5070531;28;20200;-83
2022/12/17 22:58:17;;;;;;;8.57;7.50;;;;;;;;;;5070072;28;20205;-82
2022/12/17 23:00:44;;;;;;;7.13;6.13;;;;;;;;;;5068078;28;20200;-82
2022/12/17 23:03:11;;;;;;;7.43;5.90;;;;;;;;;;5064363;28;20205;-82
2022/12/17 23:05:38;;;;;;;15.20;9.57;;;;;;;;;;5068756;28;20554;-83
2022/12/17 23:08:05;;;;;;;5.50;4.93;;;;;;;;;;5058266;28;20205;-82
2022/12/17 23:10:32;;;;;;;5.40;4.50;;;;;;;;;;5070829;28;20687;-83
2022/12/17 23:12:59;;;;;;;3.80;3.40;;;;;;;;;;5070477;28;20259;-82
2022/12/17 23:15:30;;;;;;;4.57;3.67;;;;;;;;;;5070171;28;20209;-83
2022/12/17 23:17:59;;;;;;;5.27;3.23;;;;;;;;;;5070404;28;20221;-82
2022/12/17 23:20:27;;;;;;;4.60;3.70;;;;;;;;;;5070063;28;20205;-82
2022/12/17 23:22:55;;;;;;;3.80;3.50;;;;;;;;;;5070501;28;20620;-82
2022/12/17 23:25:22;;;;;;;3.90;3.60;;;;;;;;;;5066259;28;20235;-82
2022/12/17 23:27:50;;;;;;;4.17;3.77;;;;;;;;;;5059661;28;20224;-84
2022/12/17 23:30:17;;;;;;;4.50;3.93;;;;;;;;;;5070213;28;20193;-82
2022/12/17 23:32:46;;;;;;;3.57;3.27;;;;;;;;;;5051045;28;20288;-83
2022/12/17 23:35:13;;;;;;;5.43;3.03;;;;;;;;;;5067917;28;20613;-82
2022/12/17 23:37:43;;;;;;;5.17;4.03;;;;;;;;;;5070558;28;20205;-82
2022/12/17 23:40:11;;;;;;;5.97;3.13;;;;;;;;;;5066097;28;20234;-82
2022/12/17 23:42:38;;;;;;;3.40;3.07;;;;;;;;;;5050114;28;20740;-83
2022/12/17 23:45:07;;;;;;;2.90;2.70;;;;;;;;;;5068591;28;20228;-83
2022/12/17 23:47:34;;;;;;;4.03;2.97;;;;;;;;;;5070864;28;20205;-82
2022/12/17 23:50:02;;;;;;;6.67;6.17;;;;;;;;;;5070219;28;20201;-82
2022/12/17 23:52:30;;;;;;;4.53;3.40;;;;;;;;;;5070290;28;20254;-82
2022/12/17 23:54:57;;;;;;;4.10;3.70;;;;;;;;;;5063205;28;20252;-82
2022/12/17 23:57:24;;;;;;;3.47;3.10;;;;;;;;;;5063068;28;20205;-82
2022/12/17 23:59:51;;;;;;;3.47;3.03;;;;;;;;;;5069120;28;20673;-82
